sensor_id;sensor_type;location;lat;lon;timestamp;P1;durP1;ratioP1;P2;durP2;ratioP2
9236;SDS011;24579;42.810;23.214;2022-10-16T00:00:47;17.33;;;9.20;;
9236;SDS011;24579;42.810;23.214;2022-10-16T00:03:14;12.50;;;9.30;;
9236;SDS011;24579;42.810;23.214;2022-10-16T00:05:42;20.70;;;14.50;;
9236;SDS011;24579;42.810;23.214;2022-10-16T00:08:10;18.48;;;11.00;;
9236;SDS011;24579;42.810;23.214;2022-10-16T00:10:40;13.73;;;9.93;;
9236;SDS011;24579;42.810;23.214;2022-10-16T00:13:07;17.38;;;10.45;;
9236;SDS011;24579;42.810;23.214;2022-10-16T00:15:34;14.10;;;8.55;;
9236;SDS011;24579;42.810;23.214;2022-10-16T00:18:04;13.73;;;8.55;;
9236;SDS011;24579;42.810;23.214;2022-10-16T00:20:33;13.23;;;9.10;;
9236;SDS011;24579;42.810;23.214;2022-10-16T00:23:01;12.25;;;8.10;;
9236;SDS011;24579;42.810;23.214;2022-10-16T00:25:29;11.98;;;7.72;;
9236;SDS011;24579;42.810;23.214;2022-10-16T00:27:59;10.27;;;8.00;;
9236;SDS011;24579;42.810;23.214;2022-10-16T00:30:26;12.27;;;7.78;;
9236;SDS011;24579;42.810;23.214;2022-10-16T00:32:54;20.58;;;13.00;;
9236;SDS011;24579;42.810;23.214;2022-10-16T00:35:21;15.95;;;10.15;;
9236;SDS011;24579;42.810;23.214;2022-10-16T00:37:48;14.55;;;8.48;;
9236;SDS011;24579;42.810;23.214;2022-10-16T00:40:15;11.90;;;7.25;;
9236;SDS011;24579;42.810;23.214;2022-10-16T00:42:43;13.45;;;7.38;;
9236;SDS011;24579;42.810;23.214;2022-10-16T00:45:11;10.25;;;7.68;;
9236;SDS011;24579;42.810;23.214;2022-10-16T00:47:39;10.20;;;7.35;;
9236;SDS011;24579;42.810;23.214;2022-10-16T00:50:11;10.45;;;7.63;;
9236;SDS011;24579;42.810;23.214;2022-10-16T00:52:43;10.75;;;7.97;;
9236;SDS011;24579;42.810;23.214;2022-10-16T00:55:12;8.82;;;6.90;;
9236;SDS011;24579;42.810;23.214;2022-10-16T00:57:40;9.80;;;7.00;;
9236;SDS011;24579;42.810;23.214;2022-10-16T01:00:12;9.02;;;6.90;;
9236;SDS011;24579;42.810;23.214;2022-10-16T01:02:41;10.13;;;7.55;;
9236;SDS011;24579;42.810;23.214;2022-10-16T01:05:08;11.75;;;8.82;;
9236;SDS011;24579;42.810;23.214;2022-10-16T01:07:38;16.77;;;11.35;;
9236;SDS011;24579;42.810;23.214;2022-10-16T01:10:21;18.05;;;11.38;;
9236;SDS011;24579;42.810;23.214;2022-10-16T01:12:55;34.90;;;22.80;;
9236;SDS011;24579;42.810;23.214;2022-10-16T01:15:27;23.25;;;13.60;;
9236;SDS011;24579;42.810;23.214;2022-10-16T01:18:00;23.17;;;17.13;;
9236;SDS011;24579;42.810;23.214;2022-10-16T01:20:33;22.95;;;15.57;;
9236;SDS011;24579;42.810;23.214;2022-10-16T01:23:06;17.23;;;12.43;;
9236;SDS011;24579;42.810;23.214;2022-10-16T01:25:54;19.98;;;10.25;;
9236;SDS011;24579;42.810;23.214;2022-10-16T01:28:32;11.75;;;8.45;;
9236;SDS011;24579;42.810;23.214;2022-10-16T01:31:05;11.35;;;9.38;;
9236;SDS011;24579;42.810;23.214;2022-10-16T01:33:34;10.20;;;7.78;;
9236;SDS011;24579;42.810;23.214;2022-10-16T01:36:07;12.35;;;6.78;;
9236;SDS011;24579;42.810;23.214;2022-10-16T01:38:38;8.38;;;7.15;;
9236;SDS011;24579;42.810;23.214;2022-10-16T01:41:07;12.07;;;6.82;;
9236;SDS011;24579;42.810;23.214;2022-10-16T01:43:39;10.68;;;6.80;;
9236;SDS011;24579;42.810;23.214;2022-10-16T01:46:10;9.70;;;7.55;;
9236;SDS011;24579;42.810;23.214;2022-10-16T01:48:39;11.93;;;8.50;;
9236;SDS011;24579;42.810;23.214;2022-10-16T01:51:07;13.75;;;8.82;;
9236;SDS011;24579;42.810;23.214;2022-10-16T01:53:37;13.38;;;8.25;;
9236;SDS011;24579;42.810;23.214;2022-10-16T01:56:05;17.77;;;9.88;;
9236;SDS011;24579;42.810;23.214;2022-10-16T01:58:35;23.15;;;13.00;;
9236;SDS011;24579;42.810;23.214;2022-10-16T02:01:07;14.70;;;9.23;;
9236;SDS011;24579;42.810;23.214;2022-10-16T02:03:37;13.13;;;9.82;;
9236;SDS011;24579;42.810;23.214;2022-10-16T02:06:08;18.77;;;11.50;;
9236;SDS011;24579;42.810;23.214;2022-10-16T02:08:36;15.15;;;9.40;;
9236;SDS011;24579;42.810;23.214;2022-10-16T02:11:05;12.55;;;8.48;;
9236;SDS011;24579;42.810;23.214;2022-10-16T02:13:34;14.32;;;9.85;;
9236;SDS011;24579;42.810;23.214;2022-10-16T02:16:06;13.68;;;9.38;;
9236;SDS011;24579;42.810;23.214;2022-10-16T02:18:35;15.20;;;9.35;;
9236;SDS011;24579;42.810;23.214;2022-10-16T02:21:02;14.82;;;9.43;;
9236;SDS011;24579;42.810;23.214;2022-10-16T02:23:37;13.32;;;9.10;;
9236;SDS011;24579;42.810;23.214;2022-10-16T02:26:12;12.98;;;9.85;;
9236;SDS011;24579;42.810;23.214;2022-10-16T02:28:44;13.23;;;8.50;;
9236;SDS011;24579;42.810;23.214;2022-10-16T02:31:16;15.88;;;9.90;;
9236;SDS011;24579;42.810;23.214;2022-10-16T02:33:51;13.52;;;9.57;;
9236;SDS011;24579;42.810;23.214;2022-10-16T02:36:21;16.35;;;9.40;;
9236;SDS011;24579;42.810;23.214;2022-10-16T02:38:48;16.35;;;8.93;;
9236;SDS011;24579;42.810;23.214;2022-10-16T02:41:15;15.35;;;8.90;;
9236;SDS011;24579;42.810;23.214;2022-10-16T02:43:42;14.50;;;8.35;;
9236;SDS011;24579;42.810;23.214;2022-10-16T02:46:09;12.88;;;8.82;;
9236;SDS011;24579;42.810;23.214;2022-10-16T02:48:38;13.82;;;9.38;;
9236;SDS011;24579;42.810;23.214;2022-10-16T02:51:05;15.05;;;8.75;;
9236;SDS011;24579;42.810;23.214;2022-10-16T02:53:32;13.00;;;8.77;;
9236;SDS011;24579;42.810;23.214;2022-10-16T02:55:59;13.15;;;9.50;;
9236;SDS011;24579;42.810;23.214;2022-10-16T02:58:26;12.98;;;8.70;;
9236;SDS011;24579;42.810;23.214;2022-10-16T03:00:54;11.85;;;8.82;;
9236;SDS011;24579;42.810;23.214;2022-10-16T03:03:21;11.20;;;8.43;;
9236;SDS011;24579;42.810;23.214;2022-10-16T03:05:50;15.70;;;9.52;;
9236;SDS011;24579;42.810;23.214;2022-10-16T03:08:17;15.40;;;9.00;;
9236;SDS011;24579;42.810;23.214;2022-10-16T03:10:48;13.98;;;9.23;;
9236;SDS011;24579;42.810;23.214;2022-10-16T03:13:15;16.25;;;9.20;;
9236;SDS011;24579;42.810;23.214;2022-10-16T03:15:43;44.33;;;23.88;;
9236;SDS011;24579;42.810;23.214;2022-10-16T03:18:10;21.52;;;14.32;;
9236;SDS011;24579;42.810;23.214;2022-10-16T03:20:37;23.42;;;13.30;;
9236;SDS011;24579;42.810;23.214;2022-10-16T03:23:05;17.08;;;11.55;;
9236;SDS011;24579;42.810;23.214;2022-10-16T03:25:33;17.55;;;11.32;;
9236;SDS011;24579;42.810;23.214;2022-10-16T03:28:00;27.77;;;16.45;;
9236;SDS011;24579;42.810;23.214;2022-10-16T03:30:28;51.58;;;29.27;;
9236;SDS011;24579;42.810;23.214;2022-10-16T03:32:55;43.83;;;24.75;;
9236;SDS011;24579;42.810;23.214;2022-10-16T03:35:22;38.88;;;22.27;;
9236;SDS011;24579;42.810;23.214;2022-10-16T03:37:49;30.92;;;17.00;;
9236;SDS011;24579;42.810;23.214;2022-10-16T03:40:18;34.17;;;16.33;;
9236;SDS011;24579;42.810;23.214;2022-10-16T03:42:45;53.53;;;20.75;;
9236;SDS011;24579;42.810;23.214;2022-10-16T03:45:12;37.25;;;17.85;;
9236;SDS011;24579;42.810;23.214;2022-10-16T03:47:39;21.95;;;14.48;;
9236;SDS011;24579;42.810;23.214;2022-10-16T03:50:07;21.77;;;13.85;;
9236;SDS011;24579;42.810;23.214;2022-10-16T03:52:34;17.10;;;11.00;;
9236;SDS011;24579;42.810;23.214;2022-10-16T03:55:01;12.02;;;9.35;;
9236;SDS011;24579;42.810;23.214;2022-10-16T03:57:29;15.40;;;9.15;;
9236;SDS011;24579;42.810;23.214;2022-10-16T03:59:56;12.02;;;9.32;;
9236;SDS011;24579;42.810;23.214;2022-10-16T04:02:23;19.55;;;12.55;;
9236;SDS011;24579;42.810;23.214;2022-10-16T04:04:50;17.88;;;12.55;;
9236;SDS011;24579;42.810;23.214;2022-10-16T04:07:17;15.55;;;11.73;;
9236;SDS011;24579;42.810;23.214;2022-10-16T04:09:44;15.63;;;10.63;;
9236;SDS011;24579;42.810;23.214;2022-10-16T04:12:12;13.82;;;8.93;;
9236;SDS011;24579;42.810;23.214;2022-10-16T04:14:40;13.50;;;8.98;;
9236;SDS011;24579;42.810;23.214;2022-10-16T04:17:07;13.40;;;9.07;;
9236;SDS011;24579;42.810;23.214;2022-10-16T04:19:34;12.85;;;8.80;;
9236;SDS011;24579;42.810;23.214;2022-10-16T04:22:01;11.15;;;8.32;;
9236;SDS011;24579;42.810;23.214;2022-10-16T04:24:28;12.40;;;8.23;;
9236;SDS011;24579;42.810;23.214;2022-10-16T04:26:55;12.77;;;8.20;;
9236;SDS011;24579;42.810;23.214;2022-10-16T04:29:22;12.82;;;8.70;;
9236;SDS011;24579;42.810;23.214;2022-10-16T04:31:50;16.05;;;9.57;;
9236;SDS011;24579;42.810;23.214;2022-10-16T04:34:17;14.57;;;9.68;;
9236;SDS011;24579;42.810;23.214;2022-10-16T04:36:46;15.80;;;10.35;;
9236;SDS011;24579;42.810;23.214;2022-10-16T04:39:14;17.30;;;11.07;;
9236;SDS011;24579;42.810;23.214;2022-10-16T04:41:41;18.50;;;10.57;;
9236;SDS011;24579;42.810;23.214;2022-10-16T04:44:08;18.25;;;11.00;;
9236;SDS011;24579;42.810;23.214;2022-10-16T04:46:35;20.00;;;11.60;;
9236;SDS011;24579;42.810;23.214;2022-10-16T04:49:03;21.15;;;12.77;;
9236;SDS011;24579;42.810;23.214;2022-10-16T04:51:30;21.73;;;12.85;;
9236;SDS011;24579;42.810;23.214;2022-10-16T04:53:58;19.60;;;12.32;;
9236;SDS011;24579;42.810;23.214;2022-10-16T04:56:25;18.77;;;11.48;;
9236;SDS011;24579;42.810;23.214;2022-10-16T04:58:52;18.23;;;11.65;;
9236;SDS011;24579;42.810;23.214;2022-10-16T05:01:19;20.40;;;11.45;;
9236;SDS011;24579;42.810;23.214;2022-10-16T05:03:46;16.95;;;10.18;;
9236;SDS011;24579;42.810;23.214;2022-10-16T05:06:14;19.67;;;10.60;;
9236;SDS011;24579;42.810;23.214;2022-10-16T05:08:41;19.67;;;11.30;;
9236;SDS011;24579;42.810;23.214;2022-10-16T05:11:08;18.55;;;10.82;;
9236;SDS011;24579;42.810;23.214;2022-10-16T05:13:35;52.42;;;24.83;;
9236;SDS011;24579;42.810;23.214;2022-10-16T05:16:02;23.27;;;14.63;;
9236;SDS011;24579;42.810;23.214;2022-10-16T05:18:29;22.83;;;12.80;;
9236;SDS011;24579;42.810;23.214;2022-10-16T05:20:56;20.67;;;12.40;;
9236;SDS011;24579;42.810;23.214;2022-10-16T05:23:24;20.38;;;12.70;;
9236;SDS011;24579;42.810;23.214;2022-10-16T05:25:52;25.70;;;13.30;;
9236;SDS011;24579;42.810;23.214;2022-10-16T05:28:20;22.77;;;13.45;;
9236;SDS011;24579;42.810;23.214;2022-10-16T05:30:47;22.73;;;14.85;;
9236;SDS011;24579;42.810;23.214;2022-10-16T05:33:14;19.73;;;12.32;;
9236;SDS011;24579;42.810;23.214;2022-10-16T05:35:41;16.83;;;10.38;;
9236;SDS011;24579;42.810;23.214;2022-10-16T05:38:08;15.60;;;9.73;;
9236;SDS011;24579;42.810;23.214;2022-10-16T05:40:37;15.40;;;9.20;;
9236;SDS011;24579;42.810;23.214;2022-10-16T05:43:04;16.00;;;9.77;;
9236;SDS011;24579;42.810;23.214;2022-10-16T05:45:31;18.02;;;10.52;;
9236;SDS011;24579;42.810;23.214;2022-10-16T05:47:58;15.13;;;10.77;;
9236;SDS011;24579;42.810;23.214;2022-10-16T05:50:26;17.25;;;10.93;;
9236;SDS011;24579;42.810;23.214;2022-10-16T05:52:53;19.38;;;10.60;;
9236;SDS011;24579;42.810;23.214;2022-10-16T05:55:20;20.30;;;12.07;;
9236;SDS011;24579;42.810;23.214;2022-10-16T05:57:48;16.48;;;11.32;;
9236;SDS011;24579;42.810;23.214;2022-10-16T06:00:15;16.00;;;12.30;;
9236;SDS011;24579;42.810;23.214;2022-10-16T06:02:42;18.20;;;12.00;;
9236;SDS011;24579;42.810;23.214;2022-10-16T06:05:09;20.58;;;11.80;;
9236;SDS011;24579;42.810;23.214;2022-10-16T06:07:36;19.88;;;12.38;;
9236;SDS011;24579;42.810;23.214;2022-10-16T06:10:04;19.63;;;12.55;;
9236;SDS011;24579;42.810;23.214;2022-10-16T06:12:32;16.90;;;12.18;;
9236;SDS011;24579;42.810;23.214;2022-10-16T06:15:00;17.88;;;12.55;;
9236;SDS011;24579;42.810;23.214;2022-10-16T06:17:27;22.90;;;12.30;;
9236;SDS011;24579;42.810;23.214;2022-10-16T06:19:54;17.67;;;12.50;;
9236;SDS011;24579;42.810;23.214;2022-10-16T06:22:21;17.20;;;12.00;;
9236;SDS011;24579;42.810;23.214;2022-10-16T06:24:48;17.52;;;11.98;;
9236;SDS011;24579;42.810;23.214;2022-10-16T06:27:15;18.42;;;11.50;;
9236;SDS011;24579;42.810;23.214;2022-10-16T06:29:42;17.50;;;13.32;;
9236;SDS011;24579;42.810;23.214;2022-10-16T06:32:11;29.13;;;18.30;;
9236;SDS011;24579;42.810;23.214;2022-10-16T06:34:38;38.17;;;20.58;;
9236;SDS011;24579;42.810;23.214;2022-10-16T06:37:06;116.47;;;45.30;;
9236;SDS011;24579;42.810;23.214;2022-10-16T06:39:33;63.58;;;30.23;;
9236;SDS011;24579;42.810;23.214;2022-10-16T06:42:00;65.68;;;30.83;;
9236;SDS011;24579;42.810;23.214;2022-10-16T06:44:27;31.80;;;17.58;;
9236;SDS011;24579;42.810;23.214;2022-10-16T06:46:53;41.53;;;23.73;;
9236;SDS011;24579;42.810;23.214;2022-10-16T06:49:22;32.50;;;19.02;;
9236;SDS011;24579;42.810;23.214;2022-10-16T06:51:49;27.10;;;15.13;;
9236;SDS011;24579;42.810;23.214;2022-10-16T06:54:16;17.25;;;11.95;;
9236;SDS011;24579;42.810;23.214;2022-10-16T06:56:43;14.43;;;11.02;;
9236;SDS011;24579;42.810;23.214;2022-10-16T06:59:10;14.80;;;10.65;;
9236;SDS011;24579;42.810;23.214;2022-10-16T07:01:37;14.38;;;10.57;;
9236;SDS011;24579;42.810;23.214;2022-10-16T07:04:04;13.88;;;10.45;;
9236;SDS011;24579;42.810;23.214;2022-10-16T07:06:33;14.02;;;10.18;;
9236;SDS011;24579;42.810;23.214;2022-10-16T07:09:01;16.13;;;9.55;;
9236;SDS011;24579;42.810;23.214;2022-10-16T07:11:30;12.05;;;10.27;;
9236;SDS011;24579;42.810;23.214;2022-10-16T07:13:57;16.05;;;10.82;;
9236;SDS011;24579;42.810;23.214;2022-10-16T07:16:25;15.90;;;10.07;;
9236;SDS011;24579;42.810;23.214;2022-10-16T07:18:53;14.13;;;10.35;;
9236;SDS011;24579;42.810;23.214;2022-10-16T07:21:23;20.63;;;11.82;;
9236;SDS011;24579;42.810;23.214;2022-10-16T07:23:53;15.25;;;11.43;;
9236;SDS011;24579;42.810;23.214;2022-10-16T07:26:21;11.95;;;9.20;;
9236;SDS011;24579;42.810;23.214;2022-10-16T07:28:48;12.85;;;9.55;;
9236;SDS011;24579;42.810;23.214;2022-10-16T07:31:16;14.90;;;9.20;;
9236;SDS011;24579;42.810;23.214;2022-10-16T07:33:44;13.23;;;9.63;;
9236;SDS011;24579;42.810;23.214;2022-10-16T07:36:13;13.35;;;9.65;;
9236;SDS011;24579;42.810;23.214;2022-10-16T07:38:41;16.88;;;12.85;;
9236;SDS011;24579;42.810;23.214;2022-10-16T07:41:10;11.57;;;8.43;;
9236;SDS011;24579;42.810;23.214;2022-10-16T07:43:38;11.23;;;8.27;;
9236;SDS011;24579;42.810;23.214;2022-10-16T07:46:06;11.27;;;8.27;;
9236;SDS011;24579;42.810;23.214;2022-10-16T07:48:33;12.27;;;9.80;;
9236;SDS011;24579;42.810;23.214;2022-10-16T07:51:01;13.70;;;9.68;;
9236;SDS011;24579;42.810;23.214;2022-10-16T07:53:30;14.80;;;9.30;;
9236;SDS011;24579;42.810;23.214;2022-10-16T07:55:57;10.02;;;7.50;;
9236;SDS011;24579;42.810;23.214;2022-10-16T07:58:26;14.98;;;9.00;;
9236;SDS011;24579;42.810;23.214;2022-10-16T08:00:54;14.73;;;9.10;;
9236;SDS011;24579;42.810;23.214;2022-10-16T08:03:21;16.20;;;9.20;;
9236;SDS011;24579;42.810;23.214;2022-10-16T08:05:48;12.63;;;8.45;;
9236;SDS011;24579;42.810;23.214;2022-10-16T08:08:16;10.77;;;7.68;;
9236;SDS011;24579;42.810;23.214;2022-10-16T08:10:44;10.35;;;6.80;;
9236;SDS011;24579;42.810;23.214;2022-10-16T08:13:11;10.35;;;6.63;;
9236;SDS011;24579;42.810;23.214;2022-10-16T08:15:41;8.65;;;7.07;;
9236;SDS011;24579;42.810;23.214;2022-10-16T08:18:08;11.93;;;7.05;;
9236;SDS011;24579;42.810;23.214;2022-10-16T08:20:36;9.25;;;6.82;;
9236;SDS011;24579;42.810;23.214;2022-10-16T08:23:04;9.43;;;6.38;;
9236;SDS011;24579;42.810;23.214;2022-10-16T08:25:33;6.88;;;6.03;;
9236;SDS011;24579;42.810;23.214;2022-10-16T08:28:02;7.65;;;6.18;;
9236;SDS011;24579;42.810;23.214;2022-10-16T08:30:30;8.18;;;6.95;;
9236;SDS011;24579;42.810;23.214;2022-10-16T08:33:01;7.85;;;7.05;;
9236;SDS011;24579;42.810;23.214;2022-10-16T08:35:28;11.82;;;7.78;;
9236;SDS011;24579;42.810;23.214;2022-10-16T08:37:55;15.73;;;9.35;;
9236;SDS011;24579;42.810;23.214;2022-10-16T08:40:23;10.60;;;7.45;;
9236;SDS011;24579;42.810;23.214;2022-10-16T08:42:55;11.77;;;7.13;;
9236;SDS011;24579;42.810;23.214;2022-10-16T08:48:43;7.50;;;6.07;;
9236;SDS011;24579;42.810;23.214;2022-10-16T08:51:15;7.53;;;6.00;;
9236;SDS011;24579;42.810;23.214;2022-10-16T08:53:49;8.18;;;5.93;;
9236;SDS011;24579;42.810;23.214;2022-10-16T08:56:19;8.20;;;6.22;;
9236;SDS011;24579;42.810;23.214;2022-10-16T08:58:46;10.93;;;6.30;;
9236;SDS011;24579;42.810;23.214;2022-10-16T09:01:14;10.05;;;6.53;;
9236;SDS011;24579;42.810;23.214;2022-10-16T09:03:49;9.82;;;6.20;;
9236;SDS011;24579;42.810;23.214;2022-10-16T09:06:41;8.65;;;7.13;;
9236;SDS011;24579;42.810;23.214;2022-10-16T09:09:16;7.38;;;6.50;;
9236;SDS011;24579;42.810;23.214;2022-10-16T09:11:53;10.90;;;7.15;;
9236;SDS011;24579;42.810;23.214;2022-10-16T09:14:33;8.68;;;6.80;;
9236;SDS011;24579;42.810;23.214;2022-10-16T09:17:18;9.18;;;7.10;;
9236;SDS011;24579;42.810;23.214;2022-10-16T09:19:56;8.30;;;6.53;;
9236;SDS011;24579;42.810;23.214;2022-10-16T09:22:34;11.00;;;6.15;;
9236;SDS011;24579;42.810;23.214;2022-10-16T09:25:04;8.07;;;6.70;;
9236;SDS011;24579;42.810;23.214;2022-10-16T09:27:38;7.60;;;6.30;;
9236;SDS011;24579;42.810;23.214;2022-10-16T09:30:10;7.63;;;5.90;;
9236;SDS011;24579;42.810;23.214;2022-10-16T09:32:38;8.27;;;5.80;;
9236;SDS011;24579;42.810;23.214;2022-10-16T09:35:10;8.40;;;5.53;;
9236;SDS011;24579;42.810;23.214;2022-10-16T09:37:41;8.60;;;5.22;;
9236;SDS011;24579;42.810;23.214;2022-10-16T09:40:23;6.43;;;5.05;;
9236;SDS011;24579;42.810;23.214;2022-10-16T09:42:52;6.22;;;5.07;;
9236;SDS011;24579;42.810;23.214;2022-10-16T09:45:30;6.88;;;5.55;;
9236;SDS011;24579;42.810;23.214;2022-10-16T09:47:57;7.10;;;5.40;;
9236;SDS011;24579;42.810;23.214;2022-10-16T09:50:26;6.68;;;5.13;;
9236;SDS011;24579;42.810;23.214;2022-10-16T09:53:04;5.78;;;5.20;;
9236;SDS011;24579;42.810;23.214;2022-10-16T09:55:34;8.43;;;5.40;;
9236;SDS011;24579;42.810;23.214;2022-10-16T09:58:01;7.95;;;5.05;;
9236;SDS011;24579;42.810;23.214;2022-10-16T10:00:28;5.25;;;4.72;;
9236;SDS011;24579;42.810;23.214;2022-10-16T10:02:55;6.93;;;4.53;;
9236;SDS011;24579;42.810;23.214;2022-10-16T10:05:23;6.82;;;4.30;;
9236;SDS011;24579;42.810;23.214;2022-10-16T10:07:54;5.18;;;4.07;;
9236;SDS011;24579;42.810;23.214;2022-10-16T10:10:23;7.00;;;4.45;;
9236;SDS011;24579;42.810;23.214;2022-10-16T10:12:52;5.63;;;4.40;;
9236;SDS011;24579;42.810;23.214;2022-10-16T10:15:20;5.88;;;4.57;;
9236;SDS011;24579;42.810;23.214;2022-10-16T10:17:49;5.47;;;4.60;;
9236;SDS011;24579;42.810;23.214;2022-10-16T10:20:28;6.65;;;4.70;;
9236;SDS011;24579;42.810;23.214;2022-10-16T10:22:57;4.93;;;4.43;;
9236;SDS011;24579;42.810;23.214;2022-10-16T10:25:27;5.93;;;4.65;;
9236;SDS011;24579;42.810;23.214;2022-10-16T10:28:07;5.63;;;4.35;;
9236;SDS011;24579;42.810;23.214;2022-10-16T10:30:56;6.47;;;4.30;;
9236;SDS011;24579;42.810;23.214;2022-10-16T10:33:28;8.30;;;4.40;;
9236;SDS011;24579;42.810;23.214;2022-10-16T10:36:07;6.95;;;4.53;;
9236;SDS011;24579;42.810;23.214;2022-10-16T10:38:46;5.82;;;4.60;;
9236;SDS011;24579;42.810;23.214;2022-10-16T10:41:38;4.00;;;3.67;;
9236;SDS011;24579;42.810;23.214;2022-10-16T10:44:28;5.57;;;3.92;;
9236;SDS011;24579;42.810;23.214;2022-10-16T10:47:07;4.47;;;3.80;;
9236;SDS011;24579;42.810;23.214;2022-10-16T10:49:51;5.35;;;4.32;;
9236;SDS011;24579;42.810;23.214;2022-10-16T10:52:33;5.20;;;3.90;;
9236;SDS011;24579;42.810;23.214;2022-10-16T10:55:13;5.78;;;4.43;;
9236;SDS011;24579;42.810;23.214;2022-10-16T10:57:53;8.07;;;4.18;;
9236;SDS011;24579;42.810;23.214;2022-10-16T11:00:42;4.38;;;3.97;;
9236;SDS011;24579;42.810;23.214;2022-10-16T11:03:19;4.97;;;3.58;;
9236;SDS011;24579;42.810;23.214;2022-10-16T11:05:56;5.78;;;4.05;;
9236;SDS011;24579;42.810;23.214;2022-10-16T11:08:29;5.97;;;3.97;;
9236;SDS011;24579;42.810;23.214;2022-10-16T11:11:02;3.92;;;3.38;;
9236;SDS011;24579;42.810;23.214;2022-10-16T11:13:33;5.90;;;3.47;;
9236;SDS011;24579;42.810;23.214;2022-10-16T11:16:06;4.78;;;3.42;;
9236;SDS011;24579;42.810;23.214;2022-10-16T11:18:42;3.85;;;3.35;;
9236;SDS011;24579;42.810;23.214;2022-10-16T11:21:16;6.22;;;3.28;;
9236;SDS011;24579;42.810;23.214;2022-10-16T11:23:48;4.15;;;3.50;;
9236;SDS011;24579;42.810;23.214;2022-10-16T11:26:20;3.22;;;2.90;;
9236;SDS011;24579;42.810;23.214;2022-10-16T11:28:51;5.53;;;3.40;;
9236;SDS011;24579;42.810;23.214;2022-10-16T11:31:22;15.02;;;12.40;;
9236;SDS011;24579;42.810;23.214;2022-10-16T11:33:57;4.32;;;3.53;;
9236;SDS011;24579;42.810;23.214;2022-10-16T11:36:30;17.77;;;13.15;;
9236;SDS011;24579;42.810;23.214;2022-10-16T11:39:07;34.33;;;29.05;;
9236;SDS011;24579;42.810;23.214;2022-10-16T11:41:42;8.52;;;6.63;;
9236;SDS011;24579;42.810;23.214;2022-10-16T11:47:19;7.20;;;4.30;;
9236;SDS011;24579;42.810;23.214;2022-10-16T11:49:52;4.15;;;3.45;;
9236;SDS011;24579;42.810;23.214;2022-10-16T11:52:25;41.40;;;36.17;;
9236;SDS011;24579;42.810;23.214;2022-10-16T11:54:59;37.42;;;33.00;;
9236;SDS011;24579;42.810;23.214;2022-10-16T11:57:32;4.00;;;3.42;;
9236;SDS011;24579;42.810;23.214;2022-10-16T12:00:05;4.90;;;3.20;;
9236;SDS011;24579;42.810;23.214;2022-10-16T12:02:40;80.00;;;63.38;;
9236;SDS011;24579;42.810;23.214;2022-10-16T12:05:18;20.50;;;15.88;;
9236;SDS011;24579;42.810;23.214;2022-10-16T12:07:54;7.78;;;4.63;;
9236;SDS011;24579;42.810;23.214;2022-10-16T12:10:29;8.05;;;6.47;;
9236;SDS011;24579;42.810;23.214;2022-10-16T12:13:01;4.53;;;3.60;;
9236;SDS011;24579;42.810;23.214;2022-10-16T12:15:30;3.28;;;2.97;;
9236;SDS011;24579;42.810;23.214;2022-10-16T12:17:58;4.35;;;3.70;;
9236;SDS011;24579;42.810;23.214;2022-10-16T12:20:27;3.40;;;3.08;;
9236;SDS011;24579;42.810;23.214;2022-10-16T12:22:57;5.22;;;2.83;;
9236;SDS011;24579;42.810;23.214;2022-10-16T12:25:26;3.75;;;3.22;;
9236;SDS011;24579;42.810;23.214;2022-10-16T12:28:04;5.63;;;3.63;;
9236;SDS011;24579;42.810;23.214;2022-10-16T12:30:33;6.57;;;5.20;;
9236;SDS011;24579;42.810;23.214;2022-10-16T12:33:03;3.78;;;3.30;;
9236;SDS011;24579;42.810;23.214;2022-10-16T12:35:32;3.55;;;2.58;;
9236;SDS011;24579;42.810;23.214;2022-10-16T12:38:07;2.40;;;2.20;;
9236;SDS011;24579;42.810;23.214;2022-10-16T12:40:43;3.20;;;2.20;;
9236;SDS011;24579;42.810;23.214;2022-10-16T12:43:13;2.22;;;1.83;;
9236;SDS011;24579;42.810;23.214;2022-10-16T12:46:03;2.63;;;2.10;;
9236;SDS011;24579;42.810;23.214;2022-10-16T12:48:31;2.30;;;1.75;;
9236;SDS011;24579;42.810;23.214;2022-10-16T12:51:09;3.03;;;1.80;;
9236;SDS011;24579;42.810;23.214;2022-10-16T12:53:36;2.13;;;1.90;;
9236;SDS011;24579;42.810;23.214;2022-10-16T12:56:11;2.53;;;1.60;;
9236;SDS011;24579;42.810;23.214;2022-10-16T12:58:53;1.73;;;1.52;;
9236;SDS011;24579;42.810;23.214;2022-10-16T13:01:34;2.05;;;1.40;;
9236;SDS011;24579;42.810;23.214;2022-10-16T13:07:11;2.40;;;1.60;;
9236;SDS011;24579;42.810;23.214;2022-10-16T13:09:51;4.97;;;1.95;;
9236;SDS011;24579;42.810;23.214;2022-10-16T13:12:36;3.45;;;2.10;;
9236;SDS011;24579;42.810;23.214;2022-10-16T13:15:18;2.65;;;2.03;;
9236;SDS011;24579;42.810;23.214;2022-10-16T13:18:02;4.57;;;2.20;;
9236;SDS011;24579;42.810;23.214;2022-10-16T13:20:46;2.15;;;2.00;;
9236;SDS011;24579;42.810;23.214;2022-10-16T13:23:42;2.90;;;2.10;;
9236;SDS011;24579;42.810;23.214;2022-10-16T13:26:17;4.95;;;2.08;;
9236;SDS011;24579;42.810;23.214;2022-10-16T13:28:54;2.75;;;2.20;;
9236;SDS011;24579;42.810;23.214;2022-10-16T13:31:26;2.40;;;2.20;;
9236;SDS011;24579;42.810;23.214;2022-10-16T13:33:55;3.40;;;2.00;;
9236;SDS011;24579;42.810;23.214;2022-10-16T13:36:24;3.15;;;2.55;;
9236;SDS011;24579;42.810;23.214;2022-10-16T13:39:10;4.38;;;2.67;;
9236;SDS011;24579;42.810;23.214;2022-10-16T13:41:39;2.88;;;2.40;;
9236;SDS011;24579;42.810;23.214;2022-10-16T13:44:11;6.07;;;2.05;;
9236;SDS011;24579;42.810;23.214;2022-10-16T13:46:41;3.08;;;2.22;;
9236;SDS011;24579;42.810;23.214;2022-10-16T13:49:11;2.35;;;2.15;;
9236;SDS011;24579;42.810;23.214;2022-10-16T13:51:40;5.07;;;2.35;;
9236;SDS011;24579;42.810;23.214;2022-10-16T13:54:08;3.70;;;2.38;;
9236;SDS011;24579;42.810;23.214;2022-10-16T13:56:36;3.30;;;2.55;;
9236;SDS011;24579;42.810;23.214;2022-10-16T13:59:05;4.60;;;2.53;;
9236;SDS011;24579;42.810;23.214;2022-10-16T14:01:49;4.20;;;2.70;;
9236;SDS011;24579;42.810;23.214;2022-10-16T14:04:19;3.00;;;2.60;;
9236;SDS011;24579;42.810;23.214;2022-10-16T14:06:48;3.40;;;2.67;;
9236;SDS011;24579;42.810;23.214;2022-10-16T14:09:19;5.00;;;3.45;;
9236;SDS011;24579;42.810;23.214;2022-10-16T14:11:50;5.63;;;3.17;;
9236;SDS011;24579;42.810;23.214;2022-10-16T14:14:19;5.30;;;3.40;;
9236;SDS011;24579;42.810;23.214;2022-10-16T14:16:46;4.75;;;3.30;;
9236;SDS011;24579;42.810;23.214;2022-10-16T14:19:18;4.65;;;2.95;;
9236;SDS011;24579;42.810;23.214;2022-10-16T14:21:48;6.20;;;3.47;;
9236;SDS011;24579;42.810;23.214;2022-10-16T14:24:22;4.68;;;3.20;;
9236;SDS011;24579;42.810;23.214;2022-10-16T14:26:53;6.25;;;3.13;;
9236;SDS011;24579;42.810;23.214;2022-10-16T14:29:21;5.07;;;3.22;;
9236;SDS011;24579;42.810;23.214;2022-10-16T14:31:56;5.53;;;3.13;;
9236;SDS011;24579;42.810;23.214;2022-10-16T14:34:30;4.95;;;3.42;;
9236;SDS011;24579;42.810;23.214;2022-10-16T14:36:58;7.18;;;3.53;;
9236;SDS011;24579;42.810;23.214;2022-10-16T14:39:32;5.35;;;3.88;;
9236;SDS011;24579;42.810;23.214;2022-10-16T14:42:00;3.70;;;3.15;;
9236;SDS011;24579;42.810;23.214;2022-10-16T14:44:28;3.50;;;3.15;;
9236;SDS011;24579;42.810;23.214;2022-10-16T14:46:58;4.05;;;3.20;;
9236;SDS011;24579;42.810;23.214;2022-10-16T14:49:36;8.43;;;4.13;;
9236;SDS011;24579;42.810;23.214;2022-10-16T14:52:05;5.28;;;3.47;;
9236;SDS011;24579;42.810;23.214;2022-10-16T14:54:36;5.03;;;3.30;;
9236;SDS011;24579;42.810;23.214;2022-10-16T14:57:03;4.57;;;3.58;;
9236;SDS011;24579;42.810;23.214;2022-10-16T14:59:32;7.72;;;4.05;;
9236;SDS011;24579;42.810;23.214;2022-10-16T15:02:13;5.80;;;3.88;;
9236;SDS011;24579;42.810;23.214;2022-10-16T15:04:48;6.13;;;3.45;;